sensor_id;sensor_type;location;lat;lon;timestamp;temperature;humidity
25154;DHT22;47555;51.038;6.280;2023-05-01T00:02:08;10.20;86.30
25154;DHT22;47555;51.038;6.280;2023-05-01T00:04:33;10.20;87.80
25154;DHT22;47555;51.038;6.280;2023-05-01T00:06:59;10.10;88.40
25154;DHT22;47555;51.038;6.280;2023-05-01T00:09:26;10.10;89.90
25154;DHT22;47555;51.038;6.280;2023-05-01T00:11:52;10.10;89.70
25154;DHT22;47555;51.038;6.280;2023-05-01T00:14:18;10.00;89.80
25154;DHT22;47555;51.038;6.280;2023-05-01T00:16:43;10.00;89.80
25154;DHT22;47555;51.038;6.280;2023-05-01T00:19:11;10.00;91.00
25154;DHT22;47555;51.038;6.280;2023-05-01T00:21:36;10.00;90.90
25154;DHT22;47555;51.038;6.280;2023-05-01T00:24:02;10.00;90.90
25154;DHT22;47555;51.038;6.280;2023-05-01T00:26:28;10.10;90.70
25154;DHT22;47555;51.038;6.280;2023-05-01T00:28:56;10.10;90.90
25154;DHT22;47555;51.038;6.280;2023-05-01T00:31:23;10.10;91.40
25154;DHT22;47555;51.038;6.280;2023-05-01T00:33:49;10.10;90.80
25154;DHT22;47555;51.038;6.280;2023-05-01T00:36:15;10.10;90.60
25154;DHT22;47555;51.038;6.280;2023-05-01T00:38:40;10.20;90.20
25154;DHT22;47555;51.038;6.280;2023-05-01T00:41:06;10.20;90.00
25154;DHT22;47555;51.038;6.280;2023-05-01T00:43:32;10.20;89.60
25154;DHT22;47555;51.038;6.280;2023-05-01T00:45:57;10.20;89.60
25154;DHT22;47555;51.038;6.280;2023-05-01T00:48:23;10.30;89.60
25154;DHT22;47555;51.038;6.280;2023-05-01T00:50:50;10.30;88.90
25154;DHT22;47555;51.038;6.280;2023-05-01T00:53:17;10.30;88.50
25154;DHT22;47555;51.038;6.280;2023-05-01T00:55:44;10.30;88.40
25154;DHT22;47555;51.038;6.280;2023-05-01T00:58:10;10.30;88.40
25154;DHT22;47555;51.038;6.280;2023-05-01T01:00:36;10.30;88.50
25154;DHT22;47555;51.038;6.280;2023-05-01T01:03:03;10.40;89.00
25154;DHT22;47555;51.038;6.280;2023-05-01T01:05:31;10.40;89.00
25154;DHT22;47555;51.038;6.280;2023-05-01T01:08:17;10.40;88.50
25154;DHT22;47555;51.038;6.280;2023-05-01T01:10:52;10.40;87.90
25154;DHT22;47555;51.038;6.280;2023-05-01T01:13:30;10.40;87.80
25154;DHT22;47555;51.038;6.280;2023-05-01T01:16:22;10.40;87.90
25154;DHT22;47555;51.038;6.280;2023-05-01T01:18:57;10.30;88.50
25154;DHT22;47555;51.038;6.280;2023-05-01T01:21:32;10.20;88.60
25154;DHT22;47555;51.038;6.280;2023-05-01T01:34:57;10.10;91.90
25154;DHT22;47555;51.038;6.280;2023-05-01T01:37:31;10.20;91.50
25154;DHT22;47555;51.038;6.280;2023-05-01T01:40:09;10.20;91.90
25154;DHT22;47555;51.038;6.280;2023-05-01T01:43:01;10.30;91.00
25154;DHT22;47555;51.038;6.280;2023-05-01T01:45:36;10.30;90.70
25154;DHT22;47555;51.038;6.280;2023-05-01T01:48:05;10.30;90.10
25154;DHT22;47555;51.038;6.280;2023-05-01T01:50:32;10.40;89.90
25154;DHT22;47555;51.038;6.280;2023-05-01T01:53:01;10.40;90.00
25154;DHT22;47555;51.038;6.280;2023-05-01T01:55:29;10.40;89.80
25154;DHT22;47555;51.038;6.280;2023-05-01T01:57:58;10.40;89.40
25154;DHT22;47555;51.038;6.280;2023-05-01T02:00:24;10.40;89.10
25154;DHT22;47555;51.038;6.280;2023-05-01T02:02:50;10.40;88.80
25154;DHT22;47555;51.038;6.280;2023-05-01T02:05:18;10.40;88.80
25154;DHT22;47555;51.038;6.280;2023-05-01T02:07:46;10.40;89.10
25154;DHT22;47555;51.038;6.280;2023-05-01T02:10:13;10.40;90.20
25154;DHT22;47555;51.038;6.280;2023-05-01T02:12:41;10.40;90.20
25154;DHT22;47555;51.038;6.280;2023-05-01T02:15:09;10.40;90.40
25154;DHT22;47555;51.038;6.280;2023-05-01T02:17:36;10.40;90.30
25154;DHT22;47555;51.038;6.280;2023-05-01T02:20:03;10.40;90.60
25154;DHT22;47555;51.038;6.280;2023-05-01T02:22:30;10.40;90.40
25154;DHT22;47555;51.038;6.280;2023-05-01T02:24:56;10.40;90.00
25154;DHT22;47555;51.038;6.280;2023-05-01T02:27:29;10.40;90.00
25154;DHT22;47555;51.038;6.280;2023-05-01T02:29:56;10.40;89.50
25154;DHT22;47555;51.038;6.280;2023-05-01T02:32:22;10.50;89.10
25154;DHT22;47555;51.038;6.280;2023-05-01T02:34:47;10.50;88.80
25154;DHT22;47555;51.038;6.280;2023-05-01T02:37:13;10.50;88.50
25154;DHT22;47555;51.038;6.280;2023-05-01T02:39:39;10.50;88.10
25154;DHT22;47555;51.038;6.280;2023-05-01T02:42:07;10.60;87.90
25154;DHT22;47555;51.038;6.280;2023-05-01T02:44:43;10.60;87.50
25154;DHT22;47555;51.038;6.280;2023-05-01T02:47:11;10.60;86.90
25154;DHT22;47555;51.038;6.280;2023-05-01T02:49:40;10.60;86.60
25154;DHT22;47555;51.038;6.280;2023-05-01T02:52:08;10.60;86.40
25154;DHT22;47555;51.038;6.280;2023-05-01T02:54:35;10.60;86.30
25154;DHT22;47555;51.038;6.280;2023-05-01T02:57:03;10.60;86.00
25154;DHT22;47555;51.038;6.280;2023-05-01T02:59:30;10.70;85.80
25154;DHT22;47555;51.038;6.280;2023-05-01T03:01:55;10.70;85.70
25154;DHT22;47555;51.038;6.280;2023-05-01T03:04:21;10.70;86.30
25154;DHT22;47555;51.038;6.280;2023-05-01T03:06:46;10.70;84.90
25154;DHT22;47555;51.038;6.280;2023-05-01T03:09:12;10.70;84.90
25154;DHT22;47555;51.038;6.280;2023-05-01T03:11:38;10.80;84.70
25154;DHT22;47555;51.038;6.280;2023-05-01T03:14:03;10.80;84.70
25154;DHT22;47555;51.038;6.280;2023-05-01T03:16:29;10.80;84.80
25154;DHT22;47555;51.038;6.280;2023-05-01T03:18:54;10.80;84.70
25154;DHT22;47555;51.038;6.280;2023-05-01T03:21:20;10.80;84.30
25154;DHT22;47555;51.038;6.280;2023-05-01T03:23:46;10.80;84.20
25154;DHT22;47555;51.038;6.280;2023-05-01T03:26:11;10.80;84.00
25154;DHT22;47555;51.038;6.280;2023-05-01T03:28:37;10.80;84.40
25154;DHT22;47555;51.038;6.280;2023-05-01T03:31:02;10.80;84.80
25154;DHT22;47555;51.038;6.280;2023-05-01T03:33:28;10.80;84.90
25154;DHT22;47555;51.038;6.280;2023-05-01T03:36:03;10.80;85.40
25154;DHT22;47555;51.038;6.280;2023-05-01T03:38:30;10.80;85.40
25154;DHT22;47555;51.038;6.280;2023-05-01T03:40:56;10.70;85.80
25154;DHT22;47555;51.038;6.280;2023-05-01T03:43:22;10.70;86.00
25154;DHT22;47555;51.038;6.280;2023-05-01T03:45:48;10.70;86.00
25154;DHT22;47555;51.038;6.280;2023-05-01T03:48:14;10.70;85.90
25154;DHT22;47555;51.038;6.280;2023-05-01T03:50:39;10.70;86.10
25154;DHT22;47555;51.038;6.280;2023-05-01T03:53:05;10.70;86.80
25154;DHT22;47555;51.038;6.280;2023-05-01T03:55:30;10.60;86.60
25154;DHT22;47555;51.038;6.280;2023-05-01T03:57:56;10.60;86.80
25154;DHT22;47555;51.038;6.280;2023-05-01T04:00:22;10.60;86.80
25154;DHT22;47555;51.038;6.280;2023-05-01T04:02:47;10.70;86.90
25154;DHT22;47555;51.038;6.280;2023-05-01T04:05:13;10.70;87.70
25154;DHT22;47555;51.038;6.280;2023-05-01T04:07:39;10.70;87.20
25154;DHT22;47555;51.038;6.280;2023-05-01T04:10:05;10.70;87.20
25154;DHT22;47555;51.038;6.280;2023-05-01T04:12:33;10.70;86.90
25154;DHT22;47555;51.038;6.280;2023-05-01T04:14:59;10.70;86.70
25154;DHT22;47555;51.038;6.280;2023-05-01T04:17:24;10.80;86.50
25154;DHT22;47555;51.038;6.280;2023-05-01T04:19:50;10.80;86.30
25154;DHT22;47555;51.038;6.280;2023-05-01T04:22:15;10.80;86.40
25154;DHT22;47555;51.038;6.280;2023-05-01T04:24:41;10.80;86.10
25154;DHT22;47555;51.038;6.280;2023-05-01T04:27:06;10.80;86.10
25154;DHT22;47555;51.038;6.280;2023-05-01T04:29:32;10.80;86.20
25154;DHT22;47555;51.038;6.280;2023-05-01T04:31:57;10.80;86.70
25154;DHT22;47555;51.038;6.280;2023-05-01T04:34:23;10.80;86.80
25154;DHT22;47555;51.038;6.280;2023-05-01T04:36:48;10.80;86.70
25154;DHT22;47555;51.038;6.280;2023-05-01T04:39:16;10.90;87.10
25154;DHT22;47555;51.038;6.280;2023-05-01T04:41:41;10.70;86.90
25154;DHT22;47555;51.038;6.280;2023-05-01T04:44:07;10.90;87.50
25154;DHT22;47555;51.038;6.280;2023-05-01T04:46:32;10.90;87.90
25154;DHT22;47555;51.038;6.280;2023-05-01T04:48:58;10.90;88.00
25154;DHT22;47555;51.038;6.280;2023-05-01T04:51:23;10.90;88.20
25154;DHT22;47555;51.038;6.280;2023-05-01T04:53:49;10.90;88.40
25154;DHT22;47555;51.038;6.280;2023-05-01T04:56:14;10.90;88.00
25154;DHT22;47555;51.038;6.280;2023-05-01T04:58:40;11.00;87.90
25154;DHT22;47555;51.038;6.280;2023-05-01T05:01:06;11.00;88.70
25154;DHT22;47555;51.038;6.280;2023-05-01T05:03:32;11.00;87.80
25154;DHT22;47555;51.038;6.280;2023-05-01T05:05:57;11.00;87.70
25154;DHT22;47555;51.038;6.280;2023-05-01T05:08:22;11.10;87.90
25154;DHT22;47555;51.038;6.280;2023-05-01T05:10:48;11.10;87.70
25154;DHT22;47555;51.038;6.280;2023-05-01T05:13:14;11.10;87.40
25154;DHT22;47555;51.038;6.280;2023-05-01T05:15:39;11.20;87.50
25154;DHT22;47555;51.038;6.280;2023-05-01T05:18:05;11.20;87.30
25154;DHT22;47555;51.038;6.280;2023-05-01T05:20:30;11.20;86.80
25154;DHT22;47555;51.038;6.280;2023-05-01T05:22:56;11.20;87.10
25154;DHT22;47555;51.038;6.280;2023-05-01T05:25:21;11.30;86.90
25154;DHT22;47555;51.038;6.280;2023-05-01T05:27:47;11.30;86.80
25154;DHT22;47555;51.038;6.280;2023-05-01T05:30:12;11.30;86.90
25154;DHT22;47555;51.038;6.280;2023-05-01T05:32:38;11.30;87.10
25154;DHT22;47555;51.038;6.280;2023-05-01T05:35:04;11.30;87.00
25154;DHT22;47555;51.038;6.280;2023-05-01T05:37:29;11.40;87.20
25154;DHT22;47555;51.038;6.280;2023-05-01T05:39:55;11.40;87.70
25154;DHT22;47555;51.038;6.280;2023-05-01T05:42:21;11.40;87.60
25154;DHT22;47555;51.038;6.280;2023-05-01T05:44:46;11.40;88.10
25154;DHT22;47555;51.038;6.280;2023-05-01T05:47:12;11.50;87.90
25154;DHT22;47555;51.038;6.280;2023-05-01T05:49:37;11.50;87.30
25154;DHT22;47555;51.038;6.280;2023-05-01T05:52:03;11.50;87.70
25154;DHT22;47555;51.038;6.280;2023-05-01T05:54:29;11.50;87.70
25154;DHT22;47555;51.038;6.280;2023-05-01T05:56:54;11.50;88.00
25154;DHT22;47555;51.038;6.280;2023-05-01T05:59:20;11.60;88.50
25154;DHT22;47555;51.038;6.280;2023-05-01T06:01:45;11.60;88.80
25154;DHT22;47555;51.038;6.280;2023-05-01T06:04:11;11.60;88.80
25154;DHT22;47555;51.038;6.280;2023-05-01T06:06:39;11.60;89.30
25154;DHT22;47555;51.038;6.280;2023-05-01T06:09:04;11.70;89.40
25154;DHT22;47555;51.038;6.280;2023-05-01T06:11:32;11.70;88.60
25154;DHT22;47555;51.038;6.280;2023-05-01T06:13:57;11.80;88.90
25154;DHT22;47555;51.038;6.280;2023-05-01T06:16:23;11.80;89.00
25154;DHT22;47555;51.038;6.280;2023-05-01T06:18:49;11.80;89.40
25154;DHT22;47555;51.038;6.280;2023-05-01T06:21:15;11.90;89.10
25154;DHT22;47555;51.038;6.280;2023-05-01T06:23:41;12.00;89.20
25154;DHT22;47555;51.038;6.280;2023-05-01T06:26:06;12.10;89.10
25154;DHT22;47555;51.038;6.280;2023-05-01T06:28:32;12.10;89.00
25154;DHT22;47555;51.038;6.280;2023-05-01T06:30:58;12.20;89.20
25154;DHT22;47555;51.038;6.280;2023-05-01T06:33:23;12.20;88.90
25154;DHT22;47555;51.038;6.280;2023-05-01T06:35:49;12.40;89.20
25154;DHT22;47555;51.038;6.280;2023-05-01T06:38:14;12.40;88.40
25154;DHT22;47555;51.038;6.280;2023-05-01T06:40:40;12.50;88.40
25154;DHT22;47555;51.038;6.280;2023-05-01T06:43:06;12.50;88.30
25154;DHT22;47555;51.038;6.280;2023-05-01T06:45:31;12.60;87.30
25154;DHT22;47555;51.038;6.280;2023-05-01T06:47:57;12.80;87.10
25154;DHT22;47555;51.038;6.280;2023-05-01T06:50:22;12.70;85.70
25154;DHT22;47555;51.038;6.280;2023-05-01T06:52:48;12.80;85.60
25154;DHT22;47555;51.038;6.280;2023-05-01T06:55:13;12.90;86.00
25154;DHT22;47555;51.038;6.280;2023-05-01T06:57:39;12.90;86.40
25154;DHT22;47555;51.038;6.280;2023-05-01T07:00:06;13.00;86.90
25154;DHT22;47555;51.038;6.280;2023-05-01T07:02:31;13.10;85.00
25154;DHT22;47555;51.038;6.280;2023-05-01T07:04:57;13.20;85.60
25154;DHT22;47555;51.038;6.280;2023-05-01T07:07:22;13.30;84.80
25154;DHT22;47555;51.038;6.280;2023-05-01T07:09:48;13.40;84.40
25154;DHT22;47555;51.038;6.280;2023-05-01T07:12:14;13.60;83.30
25154;DHT22;47555;51.038;6.280;2023-05-01T07:14:39;13.60;82.30
25154;DHT22;47555;51.038;6.280;2023-05-01T07:17:06;13.70;81.50
25154;DHT22;47555;51.038;6.280;2023-05-01T07:19:33;13.90;81.80
25154;DHT22;47555;51.038;6.280;2023-05-01T07:21:59;14.00;82.00
25154;DHT22;47555;51.038;6.280;2023-05-01T07:24:25;14.10;79.40
25154;DHT22;47555;51.038;6.280;2023-05-01T07:26:50;14.20;79.30
25154;DHT22;47555;51.038;6.280;2023-05-01T07:29:16;14.30;79.80
25154;DHT22;47555;51.038;6.280;2023-05-01T07:31:42;14.50;80.00
25154;DHT22;47555;51.038;6.280;2023-05-01T07:34:07;14.60;79.10
25154;DHT22;47555;51.038;6.280;2023-05-01T07:36:33;14.90;78.60
25154;DHT22;47555;51.038;6.280;2023-05-01T07:38:59;15.00;73.90
25154;DHT22;47555;51.038;6.280;2023-05-01T07:41:25;15.10;73.40
25154;DHT22;47555;51.038;6.280;2023-05-01T07:43:50;15.20;73.50
25154;DHT22;47555;51.038;6.280;2023-05-01T07:46:16;15.40;71.40
25154;DHT22;47555;51.038;6.280;2023-05-01T07:48:42;15.50;67.00
25154;DHT22;47555;51.038;6.280;2023-05-01T07:51:07;15.70;68.20
25154;DHT22;47555;51.038;6.280;2023-05-01T07:53:33;15.90;67.20
25154;DHT22;47555;51.038;6.280;2023-05-01T07:56:06;16.00;66.30
25154;DHT22;47555;51.038;6.280;2023-05-01T07:58:32;16.20;62.80
25154;DHT22;47555;51.038;6.280;2023-05-01T08:00:57;16.30;60.50
25154;DHT22;47555;51.038;6.280;2023-05-01T08:03:23;16.50;60.20
25154;DHT22;47555;51.038;6.280;2023-05-01T08:05:48;16.60;58.80
25154;DHT22;47555;51.038;6.280;2023-05-01T08:08:14;16.60;55.50
25154;DHT22;47555;51.038;6.280;2023-05-01T08:10:44;16.80;57.00
25154;DHT22;47555;51.038;6.280;2023-05-01T08:13:10;17.00;57.00
25154;DHT22;47555;51.038;6.280;2023-05-01T08:15:36;17.10;53.70
25154;DHT22;47555;51.038;6.280;2023-05-01T08:18:03;17.30;51.80
25154;DHT22;47555;51.038;6.280;2023-05-01T08:20:29;17.60;53.10
25154;DHT22;47555;51.038;6.280;2023-05-01T08:22:55;18.10;53.60
25154;DHT22;47555;51.038;6.280;2023-05-01T08:25:20;18.50;49.50
25154;DHT22;47555;51.038;6.280;2023-05-01T08:27:47;19.00;45.40
25154;DHT22;47555;51.038;6.280;2023-05-01T08:30:13;19.50;42.70
25154;DHT22;47555;51.038;6.280;2023-05-01T08:32:38;19.90;40.50
25154;DHT22;47555;51.038;6.280;2023-05-01T08:35:04;20.10;39.00
25154;DHT22;47555;51.038;6.280;2023-05-01T08:37:30;20.20;38.20
25154;DHT22;47555;51.038;6.280;2023-05-01T08:39:55;20.20;39.40
25154;DHT22;47555;51.038;6.280;2023-05-01T08:42:21;20.20;39.00
25154;DHT22;47555;51.038;6.280;2023-05-01T08:44:48;20.30;39.30
25154;DHT22;47555;51.038;6.280;2023-05-01T08:47:16;20.30;38.40
25154;DHT22;47555;51.038;6.280;2023-05-01T08:49:43;20.50;39.30
25154;DHT22;47555;51.038;6.280;2023-05-01T08:52:13;20.60;38.20
25154;DHT22;47555;51.038;6.280;2023-05-01T08:54:42;20.60;37.10
25154;DHT22;47555;51.038;6.280;2023-05-01T08:57:09;20.60;36.20
25154;DHT22;47555;51.038;6.280;2023-05-01T08:59:36;20.70;35.90
25154;DHT22;47555;51.038;6.280;2023-05-01T09:02:04;20.80;35.70
25154;DHT22;47555;51.038;6.280;2023-05-01T09:04:48;20.80;34.50
25154;DHT22;47555;51.038;6.280;2023-05-01T09:07:15;20.80;33.90
25154;DHT22;47555;51.038;6.280;2023-05-01T09:09:41;20.80;35.60
25154;DHT22;47555;51.038;6.280;2023-05-01T09:12:24;20.80;35.20
25154;DHT22;47555;51.038;6.280;2023-05-01T09:14:54;20.90;34.90
25154;DHT22;47555;51.038;6.280;2023-05-01T09:17:21;20.90;34.70
25154;DHT22;47555;51.038;6.280;2023-05-01T09:19:48;20.90;34.80
25154;DHT22;47555;51.038;6.280;2023-05-01T09:22:14;20.90;35.70
25154;DHT22;47555;51.038;6.280;2023-05-01T09:24:41;21.00;36.40
25154;DHT22;47555;51.038;6.280;2023-05-01T09:27:07;21.00;36.00
25154;DHT22;47555;51.038;6.280;2023-05-01T09:29:40;21.00;36.20
25154;DHT22;47555;51.038;6.280;2023-05-01T09:32:14;21.00;35.50
25154;DHT22;47555;51.038;6.280;2023-05-01T09:34:40;21.00;35.00
25154;DHT22;47555;51.038;6.280;2023-05-01T09:37:06;21.10;35.30
25154;DHT22;47555;51.038;6.280;2023-05-01T09:39:31;21.20;34.70
25154;DHT22;47555;51.038;6.280;2023-05-01T09:41:57;21.20;34.90
25154;DHT22;47555;51.038;6.280;2023-05-01T09:44:22;21.20;35.50
25154;DHT22;47555;51.038;6.280;2023-05-01T09:46:48;21.10;37.30
25154;DHT22;47555;51.038;6.280;2023-05-01T09:49:14;21.20;36.10
25154;DHT22;47555;51.038;6.280;2023-05-01T09:51:40;21.20;36.30
25154;DHT22;47555;51.038;6.280;2023-05-01T09:54:17;21.40;35.70
25154;DHT22;47555;51.038;6.280;2023-05-01T09:56:47;21.30;34.40
25154;DHT22;47555;51.038;6.280;2023-05-01T09:59:18;21.30;34.50
25154;DHT22;47555;51.038;6.280;2023-05-01T10:01:45;21.40;35.00
25154;DHT22;47555;51.038;6.280;2023-05-01T10:04:12;21.40;33.60
25154;DHT22;47555;51.038;6.280;2023-05-01T10:06:39;21.40;33.20
25154;DHT22;47555;51.038;6.280;2023-05-01T10:09:05;21.40;33.90
25154;DHT22;47555;51.038;6.280;2023-05-01T10:11:51;21.50;33.30
25154;DHT22;47555;51.038;6.280;2023-05-01T10:14:18;21.50;34.40
25154;DHT22;47555;51.038;6.280;2023-05-01T10:16:44;21.50;33.90
25154;DHT22;47555;51.038;6.280;2023-05-01T10:19:11;21.60;32.80
25154;DHT22;47555;51.038;6.280;2023-05-01T10:21:37;21.60;33.50
25154;DHT22;47555;51.038;6.280;2023-05-01T10:24:03;21.70;33.60
25154;DHT22;47555;51.038;6.280;2023-05-01T10:26:32;21.90;33.90
25154;DHT22;47555;51.038;6.280;2023-05-01T10:28:59;22.00;32.60
25154;DHT22;47555;51.038;6.280;2023-05-01T10:31:26;22.10;33.10
25154;DHT22;47555;51.038;6.280;2023-05-01T10:33:53;22.10;33.40
25154;DHT22;47555;51.038;6.280;2023-05-01T10:36:36;22.10;30.80
25154;DHT22;47555;51.038;6.280;2023-05-01T10:39:03;22.10;33.00
25154;DHT22;47555;51.038;6.280;2023-05-01T10:44:23;22.40;32.80
25154;DHT22;47555;51.038;6.280;2023-05-01T10:46:49;22.40;31.30
25154;DHT22;47555;51.038;6.280;2023-05-01T10:49:15;22.50;32.10
25154;DHT22;47555;51.038;6.280;2023-05-01T13:26:43;22.60;36.00
25154;DHT22;47555;51.038;6.280;2023-05-01T13:29:13;18.90;35.70
25154;DHT22;47555;51.038;6.280;2023-05-01T13:31:42;18.40;36.70
25154;DHT22;47555;51.038;6.280;2023-05-01T13:34:08;17.90;37.80
25154;DHT22;47555;51.038;6.280;2023-05-01T13:36:34;17.50;39.90
25154;DHT22;47555;51.038;6.280;2023-05-01T13:39:00;17.30;41.40
25154;DHT22;47555;51.038;6.280;2023-05-01T13:41:26;17.10;42.40
25154;DHT22;47555;51.038;6.280;2023-05-01T13:43:54;16.70;42.90
25154;DHT22;47555;51.038;6.280;2023-05-01T13:46:21;16.60;45.70
25154;DHT22;47555;51.038;6.280;2023-05-01T13:48:47;16.40;47.60
25154;DHT22;47555;51.038;6.280;2023-05-01T13:51:14;16.20;48.20
25154;DHT22;47555;51.038;6.280;2023-05-01T13:53:44;16.00;52.70
25154;DHT22;47555;51.038;6.280;2023-05-01T13:56:10;15.70;60.40
25154;DHT22;47555;51.038;6.280;2023-05-01T13:58:38;15.40;62.90
25154;DHT22;47555;51.038;6.280;2023-05-01T14:01:08;15.10;74.20
25154;DHT22;47555;51.038;6.280;2023-05-01T14:03:40;14.80;80.10
25154;DHT22;47555;51.038;6.280;2023-05-01T14:06:13;14.60;84.10
25154;DHT22;47555;51.038;6.280;2023-05-01T14:08:42;14.40;86.30
25154;DHT22;47555;51.038;6.280;2023-05-01T14:11:09;14.30;87.20
25154;DHT22;47555;51.038;6.280;2023-05-01T14:13:35;14.20;89.60
25154;DHT22;47555;51.038;6.280;2023-05-01T14:16:06;14.20;91.10
25154;DHT22;47555;51.038;6.280;2023-05-01T14:18:45;14.10;92.00
25154;DHT22;47555;51.038;6.280;2023-05-01T14:21:13;14.10;93.70
25154;DHT22;47555;51.038;6.280;2023-05-01T14:23:39;14.00;94.40
25154;DHT22;47555;51.038;6.280;2023-05-01T14:26:07;14.00;95.20
25154;DHT22;47555;51.038;6.280;2023-05-01T14:28:33;14.10;95.70
25154;DHT22;47555;51.038;6.280;2023-05-01T14:30:58;14.10;96.30
25154;DHT22;47555;51.038;6.280;2023-05-01T14:33:24;14.20;96.30
25154;DHT22;47555;51.038;6.280;2023-05-01T14:35:52;14.20;95.90
25154;DHT22;47555;51.038;6.280;2023-05-01T14:38:18;14.30;95.60
25154;DHT22;47555;51.038;6.280;2023-05-01T14:40:48;14.50;95.60
25154;DHT22;47555;51.038;6.280;2023-05-01T14:43:16;14.40;95.50
25154;DHT22;47555;51.038;6.280;2023-05-01T14:45:43;14.50;95.70
25154;DHT22;47555;51.038;6.280;2023-05-01T14:48:20;14.70;96.00
25154;DHT22;47555;51.038;6.280;2023-05-01T14:50:47;14.80;96.70
25154;DHT22;47555;51.038;6.280;2023-05-01T14:53:13;14.90;97.50
25154;DHT22;47555;51.038;6.280;2023-05-01T14:55:40;15.00;94.80
25154;DHT22;47555;51.038;6.280;2023-05-01T14:58:06;15.10;93.80
25154;DHT22;47555;51.038;6.280;2023-05-01T15:00:32;15.10;94.70
25154;DHT22;47555;51.038;6.280;2023-05-01T15:02:58;15.10;93.80
25154;DHT22;47555;51.038;6.280;2023-05-01T15:05:24;15.10;93.60
25154;DHT22;47555;51.038;6.280;2023-05-01T15:07:53;15.20;94.70
25154;DHT22;47555;51.038;6.280;2023-05-01T15:10:20;15.10;95.30
25154;DHT22;47555;51.038;6.280;2023-05-01T15:12:48;15.10;95.30
25154;DHT22;47555;51.038;6.280;2023-05-01T15:15:13;15.10;96.40
25154;DHT22;47555;51.038;6.280;2023-05-01T15:17:39;14.90;98.70
25154;DHT22;47555;51.038;6.280;2023-05-01T15:20:05;14.80;95.30
25154;DHT22;47555;51.038;6.280;2023-05-01T15:22:31;14.70;93.30
25154;DHT22;47555;51.038;6.280;2023-05-01T15:24:56;14.50;93.20
25154;DHT22;47555;51.038;6.280;2023-05-01T15:27:23;14.40;94.30
25154;DHT22;47555;51.038;6.280;2023-05-01T15:29:48;14.30;95.80
25154;DHT22;47555;51.038;6.280;2023-05-01T15:32:14;14.10;96.60
25154;DHT22;47555;51.038;6.280;2023-05-01T15:34:40;14.10;94.30
25154;DHT22;47555;51.038;6.280;2023-05-01T15:37:06;14.00;94.30
25154;DHT22;47555;51.038;6.280;2023-05-01T15:39:32;13.80;95.10
25154;DHT22;47555;51.038;6.280;2023-05-01T15:42:01;13.70;96.10
25154;DHT22;47555;51.038;6.280;2023-05-01T15:44:26;13.70;98.30
25154;DHT22;47555;51.038;6.280;2023-05-01T15:46:53;13.60;99.30
25154;DHT22;47555;51.038;6.280;2023-05-01T15:49:18;13.50;99.90
25154;DHT22;47555;51.038;6.280;2023-05-01T15:51:44;13.50;99.90
25154;DHT22;47555;51.038;6.280;2023-05-01T15:54:09;13.40;99.90
25154;DHT22;47555;51.038;6.280;2023-05-01T15:56:36;13.40;99.90
25154;DHT22;47555;51.038;6.280;2023-05-01T15:59:02;13.30;99.90
25154;DHT22;47555;51.038;6.280;2023-05-01T16:01:32;13.20;99.90
25154;DHT22;47555;51.038;6.280;2023-05-01T16:03:58;13.30;99.90
25154;DHT22;47555;51.038;6.280;2023-05-01T16:06:24;13.30;99.90
25154;DHT22;47555;51.038;6.280;2023-05-01T16:08:50;13.40;99.90
25154;DHT22;47555;51.038;6.280;2023-05-01T16:11:16;13.40;99.90
25154;DHT22;47555;51.038;6.280;2023-05-01T16:13:41;13.40;99.90
25154;DHT22;47555;51.038;6.280;2023-05-01T16:16:08;13.40;99.90
25154;DHT22;47555;51.038;6.280;2023-05-01T16:18:40;13.30;99.90
25154;DHT22;47555;51.038;6.280;2023-05-01T16:21:14;13.30;99.90
25154;DHT22;47555;51.038;6.280;2023-05-01T16:23:41;13.20;99.90
25154;DHT22;47555;51.038;6.280;2023-05-01T16:26:08;13.20;99.90
25154;DHT22;47555;51.038;6.280;2023-05-01T16:28:34;13.20;99.90
25154;DHT22;47555;51.038;6.280;2023-05-01T16:31:00;13.10;99.90
25154;DHT22;47555;51.038;6.280;2023-05-01T16:33:25;13.10;99.90
25154;DHT22;47555;51.038;6.280;2023-05-01T16:35:51;13.10;99.90
25154;DHT22;47555;51.038;6.280;2023-05-01T16:38:17;13.10;99.90
25154;DHT22;47555;51.038;6.280;2023-05-01T16:40:43;13.10;99.90
25154;DHT22;47555;51.038;6.280;2023-05-01T16:43:10;13.00;99.90
25154;DHT22;47555;51.038;6.280;2023-05-01T16:45:36;13.00;99.90
25154;DHT22;47555;51.038;6.280;2023-05-01T16:48:03;13.00;99.90
25154;DHT22;47555;51.038;6.280;2023-05-01T16:50:28;12.90;99.90
25154;DHT22;47555;51.038;6.280;2023-05-01T16:52:54;12.90;99.90
25154;DHT22;47555;51.038;6.280;2023-05-01T16:55:20;12.90;99.90
25154;DHT22;47555;51.038;6.280;2023-05-01T16:57:46;12.90;99.90
25154;DHT22;47555;51.038;6.280;2023-05-01T17:00:13;12.90;99.90
25154;DHT22;47555;51.038;6.280;2023-05-01T17:02:39;12.90;99.90
25154;DHT22;47555;51.038;6.280;2023-05-01T17:05:05;12.90;99.90
25154;DHT22;47555;51.038;6.280;2023-05-01T17:07:31;12.70;99.90
25154;DHT22;47555;51.038;6.280;2023-05-01T17:09:56;12.90;99.90
25154;DHT22;47555;51.038;6.280;2023-05-01T17:12:22;12.90;99.90
25154;DHT22;47555;51.038;6.280;2023-05-01T17:14:48;12.90;99.90
25154;DHT22;47555;51.038;6.280;2023-05-01T17:17:14;13.00;99.90
25154;DHT22;47555;51.038;6.280;2023-05-01T17:19:42;13.00;99.90
25154;DHT22;47555;51.038;6.280;2023-05-01T17:22:07;13.10;99.90
25154;DHT22;47555;51.038;6.280;2023-05-01T17:24:34;13.30;99.90
25154;DHT22;47555;51.038;6.280;2023-05-01T17:27:00;13.40;99.90
25154;DHT22;47555;51.038;6.280;2023-05-01T17:29:26;13.40;99.90
25154;DHT22;47555;51.038;6.280;2023-05-01T17:31:51;13.50;99.90
25154;DHT22;47555;51.038;6.280;2023-05-01T17:34:17;13.50;99.90
25154;DHT22;47555;51.038;6.280;2023-05-01T17:36:43;13.50;99.90
25154;DHT22;47555;51.038;6.280;2023-05-01T17:39:08;13.50;99.90
25154;DHT22;47555;51.038;6.280;2023-05-01T17:41:33;13.40;99.90
25154;DHT22;47555;51.038;6.280;2023-05-01T17:43:59;13.40;99.90
25154;DHT22;47555;51.038;6.280;2023-05-01T17:46:25;13.40;99.90
25154;DHT22;47555;51.038;6.280;2023-05-01T17:48:50;13.40;99.90
25154;DHT22;47555;51.038;6.280;2023-05-01T17:51:16;13.30;99.90
25154;DHT22;47555;51.038;6.280;2023-05-01T17:53:42;13.40;99.90
25154;DHT22;47555;51.038;6.280;2023-05-01T17:56:08;13.30;99.90
25154;DHT22;47555;51.038;6.280;2023-05-01T17:58:33;13.40;99.90
25154;DHT22;47555;51.038;6.280;2023-05-01T18:00:59;13.30;99.90
25154;DHT22;47555;51.038;6.280;2023-05-01T18:03:24;13.30;99.90
25154;DHT22;47555;51.038;6.280;2023-05-01T18:05:50;13.30;99.90
25154;DHT22;47555;51.038;6.280;2023-05-01T18:08:16;13.20;99.90
25154;DHT22;47555;51.038;6.280;2023-05-01T18:10:41;13.20;99.90
25154;DHT22;47555;51.038;6.280;2023-05-01T18:13:07;13.20;99.90
25154;DHT22;47555;51.038;6.280;2023-05-01T18:15:32;13.10;99.90
25154;DHT22;47555;51.038;6.280;2023-05-01T18:17:58;13.00;99.90